createdAt,value
2019-02-14T00:02:05.986Z,1.30
2019-02-14T00:04:34.520Z,1.70
2019-02-14T00:07:02.993Z,1.23
2019-02-14T00:09:31.620Z,1.17
2019-02-14T00:12:00.129Z,0.97
2019-02-14T00:14:28.743Z,1.23
2019-02-14T00:16:57.367Z,1.53
2019-02-14T00:19:25.884Z,1.60
2019-02-14T00:21:54.489Z,1.23
2019-02-14T00:24:23.186Z,1.03
2019-02-14T00:26:52.094Z,1.20
2019-02-14T00:29:20.646Z,1.57
2019-02-14T00:31:49.201Z,1.20
2019-02-14T00:34:17.851Z,0.83
2019-02-14T00:36:46.472Z,1.10
2019-02-14T00:39:15.030Z,1.40
2019-02-14T00:41:43.573Z,1.53
2019-02-14T00:44:12.201Z,1.10
2019-02-14T00:46:40.831Z,1.20
2019-02-14T00:49:09.354Z,1.30
2019-02-14T00:51:38.018Z,1.43
2019-02-14T00:54:06.500Z,1.40
2019-02-14T00:56:35.032Z,1.40
2019-02-14T00:59:03.650Z,1.67
2019-02-14T01:01:32.264Z,2.00
2019-02-14T01:04:00.878Z,2.23
2019-02-14T01:06:29.430Z,1.67
2019-02-14T01:08:58.042Z,2.00
2019-02-14T01:11:26.705Z,2.57
2019-02-14T01:13:55.190Z,3.13
2019-02-14T01:16:23.674Z,3.33
2019-02-14T01:18:52.331Z,2.83
2019-02-14T01:21:21.001Z,3.33
2019-02-14T01:23:49.491Z,3.53
2019-02-14T01:26:18.023Z,3.20
2019-02-14T01:31:29.474Z,3.37
2019-02-14T01:33:58.113Z,3.00
2019-02-14T01:36:26.730Z,3.00
2019-02-14T01:38:55.342Z,2.40
2019-02-14T01:41:23.821Z,2.80
2019-02-14T01:43:52.459Z,2.90
2019-02-14T01:46:21.137Z,3.20
2019-02-14T01:48:49.616Z,3.60
2019-02-14T01:51:18.219Z,4.37
2019-02-14T01:53:46.872Z,3.60
2019-02-14T01:56:45.661Z,4.30
2019-02-14T01:59:14.276Z,5.03
2019-02-14T02:01:42.827Z,5.07
2019-02-14T02:04:11.455Z,6.07
2019-02-14T02:06:40.214Z,5.80
2019-02-14T02:09:08.872Z,5.07
2019-02-14T02:11:37.511Z,6.57
2019-02-14T02:14:06.380Z,6.60
2019-02-14T02:16:35.002Z,6.07
2019-02-14T02:19:03.699Z,6.23
2019-02-14T02:21:32.366Z,6.87
2019-02-14T02:24:00.870Z,6.50
2019-02-14T02:26:29.423Z,7.50
2019-02-14T02:28:58.267Z,7.10
2019-02-14T02:31:26.888Z,4.87
2019-02-14T02:33:55.441Z,6.80
2019-02-14T02:36:23.967Z,7.37
2019-02-14T02:38:52.595Z,7.03
2019-02-14T02:41:21.241Z,6.97
2019-02-14T02:43:49.745Z,6.80
2019-02-14T02:46:18.246Z,6.47
2019-02-14T02:48:46.880Z,7.53
2019-02-14T02:51:15.483Z,7.70
2019-02-14T02:53:44.105Z,6.97
2019-02-14T02:56:12.949Z,8.77
2019-02-14T02:58:41.652Z,7.40
2019-02-14T03:01:10.210Z,7.83
2019-02-14T03:03:38.843Z,8.20
2019-02-14T03:06:10.702Z,9.30
2019-02-14T03:08:37.754Z,8.53
2019-02-14T03:11:06.315Z,6.77
2019-02-14T03:13:34.992Z,8.33
2019-02-14T03:16:03.688Z,8.73
2019-02-14T03:18:32.192Z,7.63
2019-02-14T03:21:00.701Z,8.60
2019-02-14T03:23:29.325Z,8.63
2019-02-14T03:25:57.950Z,7.37
2019-02-14T03:28:26.552Z,8.57
2019-02-14T03:30:55.186Z,7.50
2019-02-14T03:33:23.679Z,8.53
2019-02-14T03:35:52.218Z,9.60
2019-02-14T03:38:20.848Z,9.23
2019-02-14T03:40:49.478Z,9.10
2019-02-14T03:43:18.012Z,8.33
2019-02-14T03:45:46.506Z,8.80
2019-02-14T03:48:15.138Z,8.60
2019-02-14T03:50:43.792Z,9.53
2019-02-14T03:53:12.362Z,9.30
2019-02-14T03:55:40.846Z,8.57
2019-02-14T03:58:09.517Z,8.87
2019-02-14T04:00:38.129Z,9.27
2019-02-14T04:03:06.678Z,9.27
2019-02-14T04:05:35.220Z,10.27
2019-02-14T04:08:03.835Z,9.83
2019-02-14T04:10:32.460Z,9.87
2019-02-14T04:13:00.980Z,9.57
2019-02-14T04:15:29.481Z,9.37
2019-02-14T04:17:58.113Z,8.37
2019-02-14T04:20:26.801Z,9.23
2019-02-14T04:22:55.290Z,9.40
2019-02-14T04:25:23.771Z,9.67
2019-02-14T04:27:52.478Z,9.60
2019-02-14T04:30:21.096Z,9.93
2019-02-14T04:32:49.585Z,9.37
2019-02-14T04:35:18.232Z,11.37
2019-02-14T04:37:46.969Z,10.73
2019-02-14T04:40:15.610Z,9.60
2019-02-14T04:42:44.154Z,10.17
2019-02-14T04:45:13.530Z,9.33
2019-02-14T04:47:42.563Z,9.93
2019-02-14T04:50:11.898Z,10.10
2019-02-14T04:52:40.539Z,11.87
2019-02-14T04:55:10.763Z,9.80
2019-02-14T04:57:39.393Z,10.43
2019-02-14T05:00:15.921Z,10.60
2019-02-14T05:02:44.637Z,11.00
2019-02-14T05:05:13.374Z,12.40
2019-02-14T05:07:42.100Z,11.93
2019-02-14T05:10:11.841Z,12.37
2019-02-14T05:12:40.487Z,13.20
2019-02-14T05:15:10.699Z,11.83
2019-02-14T05:17:39.330Z,12.80
2019-02-14T05:20:12.663Z,11.60
2019-02-14T05:22:41.499Z,15.13
2019-02-14T05:25:10.434Z,11.97
2019-02-14T05:27:44.920Z,11.87
2019-02-14T05:30:18.505Z,11.73
2019-02-14T05:32:47.003Z,12.80
2019-02-14T05:35:15.560Z,10.93
2019-02-14T05:37:44.226Z,11.50
2019-02-14T05:40:12.956Z,12.23
2019-02-14T05:42:41.439Z,15.00
2019-02-14T05:45:12.224Z,13.90
2019-02-14T05:47:40.846Z,14.50
2019-02-14T05:50:14.464Z,13.30
2019-02-14T05:52:43.078Z,15.83
2019-02-14T05:55:12.614Z,13.77
2019-02-14T05:57:41.279Z,14.30
2019-02-14T06:00:15.227Z,13.60
2019-02-14T06:02:43.721Z,13.43
2019-02-14T06:05:12.365Z,14.27
2019-02-14T06:07:41.036Z,13.67
2019-02-14T06:10:11.064Z,13.13
2019-02-14T06:12:39.696Z,12.60
2019-02-14T06:15:10.467Z,14.73
2019-02-14T06:17:39.091Z,11.63
2019-02-14T06:20:12.136Z,13.37
2019-02-14T06:22:40.798Z,10.00
2019-02-14T06:25:10.940Z,11.53
2019-02-14T06:27:39.482Z,10.47
2019-02-14T06:30:13.938Z,10.33
2019-02-14T06:32:42.568Z,12.23
2019-02-14T06:35:11.992Z,11.22
2019-02-14T06:37:40.591Z,11.77
2019-02-14T06:40:13.732Z,11.60
2019-02-14T06:42:42.477Z,12.05
2019-02-14T06:45:16.488Z,11.70
2019-02-14T06:47:45.122Z,12.05
2019-02-14T06:50:13.749Z,9.98
2019-02-14T06:52:42.279Z,10.88
2019-02-14T06:55:11.010Z,8.13
2019-02-14T06:57:39.634Z,9.55
2019-02-14T07:00:11.210Z,8.58
2019-02-14T07:02:39.762Z,9.70
2019-02-14T07:05:09.789Z,11.08
2019-02-14T07:07:38.473Z,10.60
2019-02-14T07:10:09.200Z,11.48
2019-02-14T07:12:37.701Z,12.68
2019-02-14T07:15:12.334Z,10.68
2019-02-14T07:17:41.085Z,10.63
2019-02-14T07:20:12.351Z,9.88
2019-02-14T07:22:40.888Z,10.10
2019-02-14T07:25:11.389Z,9.10
2019-02-14T07:27:40.026Z,13.32
2019-02-14T07:30:22.363Z,9.45
2019-02-14T07:32:50.981Z,8.13
2019-02-14T07:35:19.709Z,10.60
2019-02-14T07:37:48.386Z,8.88
2019-02-14T07:40:16.997Z,9.97
2019-02-14T07:42:45.674Z,10.13
2019-02-14T07:45:18.339Z,10.15
2019-02-14T07:47:46.886Z,9.93
2019-02-14T07:50:18.163Z,9.20
2019-02-14T07:52:46.848Z,8.70
2019-02-14T07:55:15.613Z,8.83
2019-02-14T07:57:44.371Z,9.28
2019-02-14T08:00:15.950Z,9.55
2019-02-14T08:02:44.587Z,37.08
2019-02-14T08:05:13.222Z,17.45
2019-02-14T08:07:41.813Z,30.10
2019-02-14T08:10:15.525Z,17.65
2019-02-14T08:12:44.077Z,24.18
2019-02-14T08:15:14.044Z,8.35
2019-02-14T08:17:42.679Z,10.20
2019-02-14T08:20:13.415Z,8.90
2019-02-14T08:22:42.249Z,8.18
2019-02-14T08:25:12.681Z,6.08
2019-02-14T08:27:41.312Z,6.58
2019-02-14T08:30:17.052Z,6.28
2019-02-14T08:32:45.539Z,6.62
2019-02-14T08:35:14.105Z,5.05
2019-02-14T08:37:45.433Z,5.53
2019-02-14T08:40:21.981Z,3.90
2019-02-14T08:42:50.689Z,5.30
2019-02-14T08:45:19.173Z,5.00
2019-02-14T08:47:47.802Z,5.10
2019-02-14T08:50:16.340Z,5.90
2019-02-14T08:52:44.955Z,4.90
2019-02-14T08:55:13.583Z,4.03
2019-02-14T08:57:42.188Z,5.30
2019-02-14T09:00:15.288Z,5.20
2019-02-14T09:02:43.902Z,6.17
2019-02-14T09:05:12.738Z,11.63
2019-02-14T09:07:41.414Z,6.13
2019-02-14T09:10:14.873Z,5.70
2019-02-14T09:12:43.543Z,5.62
2019-02-14T09:15:13.469Z,5.57
2019-02-14T09:17:42.114Z,6.17
2019-02-14T09:20:18.376Z,7.83
2019-02-14T09:22:47.010Z,7.10
2019-02-14T09:25:15.627Z,5.50
2019-02-14T09:27:44.165Z,5.23
2019-02-14T09:30:14.091Z,6.17
2019-02-14T09:32:42.761Z,5.90
2019-02-14T09:35:11.427Z,6.73
2019-02-14T09:37:39.916Z,7.42
2019-02-14T09:40:16.928Z,6.67
2019-02-14T09:42:45.565Z,6.80
2019-02-14T09:45:14.786Z,6.95
2019-02-14T09:47:43.327Z,5.60
2019-02-14T09:50:13.459Z,4.97
2019-02-14T09:52:42.385Z,5.50
2019-02-14T09:55:14.497Z,5.17
2019-02-14T09:57:43.030Z,5.72
2019-02-14T10:00:16.309Z,4.20
2019-02-14T10:02:45.009Z,3.95
2019-02-14T10:05:14.596Z,2.93
2019-02-14T10:07:43.149Z,3.17
2019-02-14T10:10:17.372Z,4.37
2019-02-14T10:12:53.702Z,2.62
2019-02-14T10:15:22.289Z,2.80
2019-02-14T10:17:50.903Z,2.80
2019-02-14T10:20:19.615Z,2.12
2019-02-14T10:22:48.104Z,2.72
2019-02-14T10:25:16.957Z,2.80
2019-02-14T10:27:45.574Z,3.58
2019-02-14T10:30:18.733Z,3.83
2019-02-14T10:32:47.325Z,3.22
2019-02-14T10:35:15.820Z,4.08
2019-02-14T10:37:44.529Z,3.57
2019-02-14T10:40:15.000Z,3.80
2019-02-14T10:42:43.547Z,3.10
2019-02-14T10:45:14.266Z,5.08
2019-02-14T10:47:42.922Z,3.65
2019-02-14T10:50:11.847Z,4.45
2019-02-14T10:52:40.480Z,6.33
2019-02-14T10:55:11.214Z,4.33
2019-02-14T10:57:39.768Z,3.85
2019-02-14T11:00:17.890Z,2.60
2019-02-14T11:02:47.093Z,3.05
2019-02-14T11:05:16.614Z,3.15
2019-02-14T11:07:45.309Z,2.87
2019-02-14T11:10:15.153Z,4.40
2019-02-14T11:12:43.769Z,3.87
2019-02-14T11:15:17.707Z,5.25
2019-02-14T11:17:46.262Z,4.50
2019-02-14T11:20:15.277Z,5.12
2019-02-14T11:22:44.184Z,5.17
2019-02-14T11:25:33.879Z,3.80
2019-02-14T11:28:02.484Z,4.12
2019-02-14T11:30:31.186Z,6.83
2019-02-14T11:32:59.739Z,5.15
2019-02-14T11:35:28.341Z,5.87
2019-02-14T11:37:57.013Z,3.72
2019-02-14T11:40:25.658Z,4.78
2019-02-14T11:42:54.161Z,3.37
2019-02-14T11:45:24.190Z,4.22
2019-02-14T11:47:52.829Z,4.40
2019-02-14T11:50:21.522Z,4.47
2019-02-14T11:52:50.010Z,5.95
2019-02-14T11:55:18.499Z,5.65
2019-02-14T11:57:47.127Z,6.62
2019-02-14T12:00:24.663Z,5.55
2019-02-14T12:02:55.876Z,5.65
2019-02-14T12:05:29.455Z,6.05
2019-02-14T12:07:58.107Z,4.92
2019-02-14T12:10:26.594Z,6.47
2019-02-14T12:12:55.212Z,7.15
2019-02-14T12:15:23.862Z,6.33
2019-02-14T12:17:52.360Z,5.55
2019-02-14T12:20:20.834Z,5.97
2019-02-14T12:22:49.527Z,5.72
2019-02-14T12:25:23.796Z,6.70
2019-02-14T12:27:52.352Z,7.30
2019-02-14T12:30:21.016Z,6.50
2019-02-14T12:32:49.633Z,5.83
2019-02-14T12:35:18.252Z,9.10
2019-02-14T12:37:46.788Z,6.00
2019-02-14T12:40:15.481Z,5.58
2019-02-14T12:42:44.099Z,6.05
2019-02-14T12:47:45.837Z,7.80
2019-02-14T12:50:14.447Z,6.40
2019-02-14T12:52:43.072Z,6.15
2019-02-14T12:55:11.710Z,8.70
2019-02-14T12:57:40.339Z,14.03
2019-02-14T13:00:17.711Z,5.53
2019-02-14T13:02:46.266Z,6.67
2019-02-14T13:05:14.811Z,7.35
2019-02-14T13:07:43.744Z,6.05
2019-02-14T13:10:14.581Z,5.47
2019-02-14T13:12:43.133Z,6.00
2019-02-14T13:15:17.541Z,6.33
2019-02-14T13:17:46.163Z,6.70
2019-02-14T13:20:14.793Z,5.85
2019-02-14T13:22:43.328Z,7.22
2019-02-14T13:25:12.739Z,7.10
2019-02-14T13:27:41.355Z,6.43
2019-02-14T13:30:15.763Z,6.67
2019-02-14T13:32:44.371Z,8.23
2019-02-14T13:35:13.304Z,9.15
2019-02-14T13:37:42.083Z,7.70
2019-02-14T13:40:10.712Z,8.48
2019-02-14T13:42:39.332Z,13.30
2019-02-14T13:45:14.333Z,9.30
2019-02-14T13:47:42.859Z,7.35
2019-02-14T13:50:12.791Z,8.95
2019-02-14T13:52:41.447Z,9.90
2019-02-14T13:55:11.175Z,9.75
2019-02-14T13:57:40.108Z,10.10
2019-02-14T14:00:14.799Z,13.13
2019-02-14T14:02:43.421Z,10.67
2019-02-14T14:05:12.043Z,9.23
2019-02-14T14:07:40.827Z,9.10
2019-02-14T14:10:10.200Z,10.65
2019-02-14T14:12:38.754Z,7.90
2019-02-14T14:15:09.416Z,10.20
2019-02-14T14:17:38.034Z,9.90
2019-02-14T14:20:08.491Z,11.70
2019-02-14T14:22:36.987Z,10.50
2019-02-14T14:25:07.425Z,10.33
2019-02-14T14:27:36.069Z,11.20
2019-02-14T14:30:07.741Z,10.70
2019-02-14T14:32:36.224Z,11.77
2019-02-14T14:35:06.354Z,11.83
2019-02-14T14:37:35.021Z,13.65
2019-02-14T14:40:04.759Z,12.53
2019-02-14T14:42:34.948Z,12.00
2019-02-14T14:45:05.526Z,15.00
2019-02-14T14:47:34.146Z,12.43
2019-02-14T14:50:02.781Z,12.87
2019-02-14T14:52:31.571Z,11.20
2019-02-14T14:55:00.037Z,14.23
2019-02-14T14:57:28.776Z,11.77
2019-02-14T14:59:57.450Z,13.70
2019-02-14T15:02:26.000Z,13.80
2019-02-14T15:04:54.484Z,14.73
2019-02-14T15:07:23.167Z,17.87
2019-02-14T15:09:57.493Z,14.07
2019-02-14T15:12:22.016Z,14.13
2019-02-14T15:14:50.625Z,13.17
2019-02-14T15:17:19.287Z,12.10
2019-02-14T15:19:47.918Z,12.40
2019-02-14T15:22:16.443Z,12.53
2019-02-14T15:24:45.041Z,14.13
2019-02-14T15:27:13.674Z,14.70
2019-02-14T15:29:42.180Z,14.47
2019-02-14T15:32:10.840Z,13.93
2019-02-14T15:34:39.460Z,13.17
2019-02-14T15:37:07.960Z,13.50
2019-02-14T15:39:36.493Z,12.70
2019-02-14T15:42:05.129Z,12.23
2019-02-14T15:44:33.774Z,12.30
2019-02-14T15:47:02.320Z,14.07
2019-02-14T15:49:30.870Z,13.47
2019-02-14T15:51:59.495Z,14.63
2019-02-14T15:54:28.172Z,12.73
2019-02-14T15:56:59.393Z,11.83
2019-02-14T15:59:28.898Z,12.20
2019-02-14T16:01:57.645Z,13.13
2019-02-14T16:04:27.099Z,15.67
2019-02-14T16:06:56.486Z,14.67
2019-02-14T16:09:25.132Z,14.40
2019-02-14T16:11:55.360Z,13.67
2019-02-14T16:14:23.959Z,15.03
2019-02-14T16:16:52.588Z,16.60
2019-02-14T16:19:21.211Z,16.70
2019-02-14T16:21:51.523Z,16.87
2019-02-14T16:24:20.180Z,16.97
2019-02-14T16:26:48.797Z,18.60
2019-02-14T16:29:17.460Z,18.93
2019-02-14T16:31:46.120Z,19.43
2019-02-14T16:34:14.641Z,22.53
2019-02-14T16:36:43.346Z,20.07
2019-02-14T16:39:12.050Z,19.97
2019-02-14T16:41:40.544Z,18.73
2019-02-14T16:44:09.062Z,19.67
2019-02-14T16:46:37.686Z,17.17
2019-02-14T16:49:06.178Z,15.70
2019-02-14T16:51:34.880Z,16.80
2019-02-14T16:54:03.500Z,19.97
2019-02-14T16:56:31.990Z,17.57
2019-02-14T16:59:00.532Z,19.03
2019-02-14T17:01:29.186Z,18.60
2019-02-14T17:03:57.821Z,22.50
2019-02-14T17:06:26.416Z,19.73
2019-02-14T17:08:54.985Z,16.47
2019-02-14T17:11:23.612Z,16.67
2019-02-14T17:13:52.443Z,15.37
2019-02-14T17:16:20.989Z,17.07
2019-02-14T17:18:49.496Z,17.57
2019-02-14T17:21:18.137Z,15.97
2019-02-14T17:23:46.754Z,14.67
2019-02-14T17:26:15.241Z,14.67
2019-02-14T17:28:43.917Z,14.90
2019-02-14T17:31:12.422Z,12.30
2019-02-14T17:33:40.911Z,17.00
2019-02-14T17:36:09.595Z,17.83
2019-02-14T17:38:38.206Z,14.50
2019-02-14T17:41:06.789Z,30.10
2019-02-14T17:43:35.547Z,16.90
2019-02-14T17:46:04.179Z,18.63
2019-02-14T17:48:32.809Z,20.93
2019-02-14T17:51:01.338Z,17.47
2019-02-14T17:53:29.834Z,20.57
2019-02-14T17:55:58.460Z,21.63
2019-02-14T17:58:27.129Z,22.87
2019-02-14T18:00:55.696Z,25.60
2019-02-14T18:03:24.209Z,28.52
2019-02-14T18:05:52.867Z,24.00
2019-02-14T18:08:21.348Z,22.77
2019-02-14T18:10:54.874Z,25.90
2019-02-14T18:13:20.373Z,32.75
2019-02-14T18:15:48.867Z,28.30
2019-02-14T18:18:17.367Z,26.77
2019-02-14T18:20:46.030Z,24.50
2019-02-14T18:23:14.661Z,26.43
2019-02-14T18:25:43.173Z,24.37
2019-02-14T18:28:11.848Z,25.17
2019-02-14T18:30:40.490Z,24.80
2019-02-14T18:33:09.113Z,25.03
2019-02-14T18:35:37.645Z,24.43
2019-02-14T18:38:06.198Z,24.90
2019-02-14T18:40:34.822Z,24.33
2019-02-14T18:43:03.485Z,23.23
2019-02-14T18:45:32.207Z,25.27
2019-02-14T18:48:00.834Z,24.50
2019-02-14T18:50:29.504Z,23.93
2019-02-14T18:52:58.075Z,24.70
2019-02-14T18:55:26.701Z,22.50
2019-02-14T18:57:55.591Z,23.27
2019-02-14T19:00:24.075Z,26.67
2019-02-14T19:02:52.630Z,23.27
2019-02-14T19:05:21.294Z,25.83
2019-02-14T19:07:49.919Z,21.93
2019-02-14T19:10:18.500Z,23.83
2019-02-14T19:12:47.083Z,18.57
2019-02-14T19:15:15.700Z,20.30
2019-02-14T19:17:44.320Z,18.87
2019-02-14T19:20:13.954Z,19.47
2019-02-14T19:22:42.764Z,21.90
2019-02-14T19:25:11.617Z,19.23
2019-02-14T19:27:40.217Z,19.30
2019-02-14T19:30:10.941Z,21.10
2019-02-14T19:32:39.651Z,22.17
2019-02-14T19:35:09.434Z,23.47
2019-02-14T19:37:37.986Z,27.53
2019-02-14T19:40:08.331Z,23.53
2019-02-14T19:42:36.962Z,24.60
2019-02-14T19:45:10.146Z,22.33
2019-02-14T19:47:38.649Z,21.97
2019-02-14T19:50:09.839Z,22.37
2019-02-14T19:52:38.467Z,25.13
2019-02-14T19:55:11.142Z,24.63
2019-02-14T19:57:42.578Z,23.40
2019-02-14T20:00:17.561Z,23.20
2019-02-14T20:02:46.193Z,20.87
2019-02-14T20:05:14.751Z,23.20
2019-02-14T20:07:43.354Z,22.80
2019-02-14T20:10:15.910Z,23.53
2019-02-14T20:12:44.534Z,25.37
2019-02-14T20:15:18.776Z,29.37
2019-02-14T20:17:47.347Z,26.67
2019-02-14T20:20:15.958Z,25.23
2019-02-14T20:22:44.900Z,22.20
2019-02-14T20:25:27.978Z,22.07
2019-02-14T20:27:56.756Z,20.73
2019-02-14T20:30:25.386Z,21.70
2019-02-14T20:33:03.930Z,38.63
2019-02-14T20:35:24.410Z,24.13
2019-02-14T20:37:52.964Z,23.23
2019-02-14T20:40:21.608Z,21.13
2019-02-14T20:42:50.284Z,23.20
2019-02-14T20:45:18.841Z,22.00
2019-02-14T20:47:48.486Z,23.73
2019-02-14T20:50:16.983Z,25.80
2019-02-14T20:52:45.567Z,24.83
2019-02-14T20:55:20.241Z,23.90
2019-02-14T20:57:48.892Z,24.63
2019-02-14T21:00:21.832Z,27.33
2019-02-14T21:02:50.380Z,29.57
2019-02-14T21:05:19.072Z,27.87
2019-02-14T21:07:47.703Z,27.23
2019-02-14T21:10:16.274Z,26.23
2019-02-14T21:12:44.789Z,26.50
2019-02-14T21:15:13.426Z,25.80
2019-02-14T21:17:42.059Z,24.67
2019-02-14T21:20:12.547Z,25.23
2019-02-14T21:22:41.095Z,25.33
2019-02-14T21:25:09.999Z,26.07
2019-02-14T21:27:38.562Z,24.13
2019-02-14T21:30:14.668Z,22.00
2019-02-14T21:32:43.319Z,20.87
2019-02-14T21:35:11.877Z,20.80
2019-02-14T21:37:40.361Z,19.07
2019-02-14T21:40:14.216Z,19.30
2019-02-14T21:42:42.840Z,19.60
2019-02-14T21:45:13.291Z,19.90
2019-02-14T21:47:41.994Z,18.73
2019-02-14T21:50:14.974Z,19.63
2019-02-14T21:52:43.713Z,19.30
2019-02-14T21:55:13.417Z,18.83
2019-02-14T21:57:42.037Z,18.43
2019-02-14T22:00:19.551Z,17.83
2019-02-14T22:02:48.856Z,18.17
2019-02-14T22:05:24.015Z,17.30
2019-02-14T22:07:48.100Z,18.10
2019-02-14T22:10:16.644Z,17.63
2019-02-14T22:12:45.210Z,20.00
2019-02-14T22:15:20.040Z,21.33
2019-02-14T22:17:48.674Z,20.23
2019-02-14T22:20:17.285Z,20.33
2019-02-14T22:22:45.948Z,22.63
2019-02-14T22:25:14.582Z,23.53
2019-02-14T22:27:43.211Z,25.60
2019-02-14T22:30:18.718Z,27.17
2019-02-14T22:32:47.354Z,26.30
2019-02-14T22:35:15.977Z,27.10
2019-02-14T22:37:44.652Z,22.30
2019-02-14T22:40:14.874Z,24.37
2019-02-14T22:42:47.553Z,22.43
2019-02-14T22:45:15.427Z,20.27
2019-02-14T22:47:45.263Z,24.43
2019-02-14T22:50:14.189Z,19.47
2019-02-14T22:52:50.883Z,18.27
2019-02-14T22:55:19.520Z,20.37
2019-02-14T22:57:48.392Z,20.23
2019-02-14T23:00:24.520Z,20.43
2019-02-14T23:02:53.229Z,19.30
2019-02-14T23:05:21.865Z,19.27
2019-02-14T23:07:50.507Z,18.90
2019-02-14T23:10:19.049Z,20.20
2019-02-14T23:12:55.481Z,18.37
2019-02-14T23:15:18.380Z,19.43
2019-02-14T23:17:47.053Z,19.37
2019-02-14T23:20:15.608Z,19.37
2019-02-14T23:22:44.206Z,18.87
2019-02-14T23:25:14.501Z,19.20
2019-02-14T23:27:42.988Z,19.87
2019-02-14T23:30:14.103Z,19.70
2019-02-14T23:32:42.784Z,20.43
2019-02-14T23:35:11.362Z,21.53
2019-02-14T23:37:40.012Z,22.10
2019-02-14T23:40:08.973Z,21.20
2019-02-14T23:42:37.614Z,20.07
2019-02-14T23:45:08.950Z,20.17
2019-02-14T23:47:37.472Z,19.57
2019-02-14T23:50:08.236Z,19.77
2019-02-14T23:52:36.860Z,19.40
2019-02-14T23:55:07.221Z,19.57
2019-02-14T23:57:35.786Z,19.77
